67.1°F
Current conditions from King Hill
Updated every 5 minutes
 
  Monday September 1, 2014

Station Historical Data
Daily Summary for January 29, 2012 Units:  Metric    English   Both
« Previous Day
Next Day »
Daily Weekly Monthly Yearly Custom
  High: Low: Average:
Temperature: 0.3 °C -2.9 °C -1.4 °C
Dew Point: -2.6 °C -9.4 °C -6.7 °C
Humidity: 86% 56% 68%
Wind Speed: 24.1km/h 1.6km/h 8.9km/h
Wind Gust: 46.7km/h - -
Wind- - WSW
Pressure: 1013.4 hPa 1006.7 hPa -
Precipitation: 0 mm    
Historical Graphs
 
 
Tabular Data for January 29, 2012
Time Temperature Dew Point Pressure Wind Wind Speed Wind Gust Humidity Daily Rainfall
00:04 -0.6 °C -2.6 °C 1006.7 hPa SW 11.3 km/h 25.7 km/h 86% 0 mm
00:09 -0.7 °C -2.7 °C 1006.7 hPa SW 9.7 km/h 25.7 km/h 86% 0 mm
00:14 -0.7 °C -2.8 °C 1007 hPa SW 8 km/h 22.5 km/h 86% 0 mm
00:19 -0.8 °C -2.8 °C 1007 hPa SW 9.7 km/h 19.3 km/h 86% 0 mm
00:24 -0.8 °C -3.3 °C 1007 hPa SW 11.3 km/h 19.3 km/h 83% 0 mm
00:29 -0.8 °C -3.4 °C 1007 hPa SW 9.7 km/h 20.9 km/h 82% 0 mm
00:34 -0.8 °C -3.8 °C 1007 hPa West 11.3 km/h 24.1 km/h 80% 0 mm
00:44 -0.8 °C -4.6 °C 1007 hPa WSW 8 km/h 25.7 km/h 76% 0 mm
00:49 -0.8 °C -4.6 °C 1007.3 hPa WSW 6.4 km/h 20.9 km/h 76% 0 mm
00:54 -0.7 °C -4.8 °C 1007.3 hPa SW 6.4 km/h 20.9 km/h 74% 0 mm
00:59 -0.7 °C -4.9 °C 1007.3 hPa Calm   12.9 km/h 73% 0 mm
01:04 -0.7 °C -5.2 °C 1007.3 hPa WSW 12.9 km/h 24.1 km/h 72% 0 mm
01:10 -0.8 °C -5.2 °C 1007.3 hPa WSW 14.5 km/h 29 km/h 72% 0 mm
01:15 -0.7 °C -5.3 °C 1007.7 hPa SW 8 km/h 29 km/h 71% 0 mm
01:20 -0.6 °C -5 °C 1007.7 hPa SW 4.8 km/h 20.9 km/h 72% 0 mm
01:25 -0.6 °C -5.3 °C 1007.7 hPa SW 16.1 km/h 29 km/h 70% 0 mm
01:30 -0.6 °C -5.3 °C 1008 hPa WSW 16.1 km/h 33.8 km/h 70% 0 mm
01:35 -0.6 °C -5.8 °C 1008 hPa SW 11.3 km/h 33.8 km/h 68% 0 mm
01:40 -0.7 °C -6.2 °C 1008 hPa WSW 14.5 km/h 30.6 km/h 66% 0 mm
01:45 -0.7 °C -6.5 °C 1008 hPa SW 14.5 km/h 30.6 km/h 65% 0 mm
01:50 -0.8 °C -7 °C 1008 hPa West 14.5 km/h 33.8 km/h 63% 0 mm
01:55 -1 °C -7.8 °C 1008.4 hPa WSW 24.1 km/h 37 km/h 60% 0 mm
02:00 -0.9 °C -7.9 °C 1008.4 hPa WSW 16.1 km/h 37 km/h 59% 0 mm
02:05 -1.1 °C -8.3 °C 1008.4 hPa SW 17.7 km/h 38.6 km/h 58% 0 mm
02:10 -1.1 °C -8.1 °C 1008.4 hPa WSW 11.3 km/h 38.6 km/h 59% 0 mm
02:15 -1.1 °C -8.1 °C 1008.7 hPa WSW 12.9 km/h 35.4 km/h 59% 0 mm
02:20 -1.1 °C -8.5 °C 1008.7 hPa WSW 14.5 km/h 35.4 km/h 57% 0 mm
02:25 -1 °C -8 °C 1009 hPa WSW 14.5 km/h 30.6 km/h 59% 0 mm
02:30 -1 °C -6.7 °C 1009 hPa SW 8 km/h 27.4 km/h 65% 0 mm
02:40 -1.2 °C -6.7 °C 1009 hPa WSW 6.4 km/h 29 km/h 66% 0 mm
02:50 -1.2 °C -8.4 °C 1009 hPa WSW 11.3 km/h 29 km/h 58% 0 mm
02:55 -1.2 °C -8.7 °C 1009 hPa WSW 14.5 km/h 29 km/h 57% 0 mm
03:00 -1.3 °C -9 °C 1009 hPa WSW 19.3 km/h 33.8 km/h 56% 0 mm
03:05 -1.4 °C -8.9 °C 1009 hPa WSW 9.7 km/h 33.8 km/h 57% 0 mm
03:10 -1.5 °C -8.7 °C 1009.4 hPa West 11.3 km/h 27.4 km/h 58% 0 mm
03:15 -1.6 °C -8.7 °C 1009.4 hPa WSW 9.7 km/h 24.1 km/h 58% 0 mm
03:20 -1.6 °C -8.6 °C 1009.4 hPa WSW 9.7 km/h 24.1 km/h 59% 0 mm
03:25 -1.6 °C -8.6 °C 1009.7 hPa West 20.9 km/h 35.4 km/h 59% 0 mm
03:30 -1.7 °C -8.6 °C 1009.7 hPa SW 12.9 km/h 35.4 km/h 59% 0 mm
03:40 -1.8 °C -8.8 °C 1009.7 hPa WSW 16.1 km/h 32.2 km/h 59% 0 mm
03:45 -1.9 °C -8.8 °C 1009.7 hPa West 14.5 km/h 25.7 km/h 59% 0 mm
03:50 -1.9 °C -8.9 °C 1010 hPa WSW 14.5 km/h 37 km/h 59% 0 mm
03:55 -1.9 °C -8.9 °C 1009.7 hPa WSW 11.3 km/h 37 km/h 59% 0 mm
04:00 -1.9 °C -9.1 °C 1010 hPa WSW 14.5 km/h 33.8 km/h 58% 0 mm
04:05 -2.1 °C -9.1 °C 1010 hPa West 12.9 km/h 33.8 km/h 59% 0 mm
04:10 -2.1 °C -8.8 °C 1010 hPa WSW 14.5 km/h 30.6 km/h 60% 0 mm
04:15 -2.1 °C -8.8 °C 1010 hPa WSW 19.3 km/h 35.4 km/h 60% 0 mm
04:20 -2.2 °C -8.7 °C 1010 hPa WSW 12.9 km/h 35.4 km/h 61% 0 mm
04:25 -2.3 °C -8.8 °C 1010.4 hPa WSW 14.5 km/h 27.4 km/h 61% 0 mm
04:35 -2.3 °C -8.6 °C 1010 hPa WSW 12.9 km/h 32.2 km/h 62% 0 mm
04:40 -2.4 °C -8.7 °C 1010.4 hPa West 16.1 km/h 30.6 km/h 62% 0 mm
04:45 -2.3 °C -8.6 °C 1010.4 hPa WSW 14.5 km/h 30.6 km/h 62% 0 mm
04:50 -2.2 °C -8.7 °C 1010.4 hPa WSW 16.1 km/h 37 km/h 61% 0 mm
04:55 -2.3 °C -8.8 °C 1010.4 hPa WSW 17.7 km/h 40.2 km/h 61% 0 mm
05:00 -2.4 °C -8.7 °C 1010.4 hPa West 14.5 km/h 40.2 km/h 62% 0 mm
05:05 -2.4 °C -8.9 °C 1010.4 hPa WSW 16.1 km/h 33.8 km/h 61% 0 mm
05:10 -2.4 °C -8.7 °C 1010.4 hPa WSW 19.3 km/h 32.2 km/h 62% 0 mm
05:15 -2.4 °C -8.7 °C 1010.7 hPa WSW 19.3 km/h 35.4 km/h 62% 0 mm
05:20 -2.4 °C -8.9 °C 1010.7 hPa West 20.9 km/h 35.4 km/h 61% 0 mm
05:25 -2.4 °C -8.7 °C 1010.7 hPa West 11.3 km/h 35.4 km/h 62% 0 mm
05:30 -2.5 °C -9 °C 1011.1 hPa West 16.1 km/h 43.5 km/h 61% 0 mm
05:35 -2.5 °C -9 °C 1011.1 hPa WSW 14.5 km/h 43.5 km/h 61% 0 mm
05:40 -2.5 °C -9 °C 1011.1 hPa WSW 22.5 km/h 46.7 km/h 61% 0 mm
05:45 -2.5 °C -9.2 °C 1011.1 hPa WSW 17.7 km/h 46.7 km/h 60% 0 mm
05:50 -2.6 °C -9.1 °C 1011.1 hPa WSW 19.3 km/h 33.8 km/h 61% 0 mm
05:55 -2.6 °C -9.1 °C 1011.1 hPa West 12.9 km/h 27.4 km/h 61% 0 mm
05:59 -2.6 °C -9.1 °C 1011.4 hPa WSW 16.1 km/h 29 km/h 61% 0 mm
06:05 -2.7 °C -8.9 °C 1011.4 hPa West 19.3 km/h 33.8 km/h 62% 0 mm
06:10 -2.7 °C -9 °C 1011.4 hPa West 11.3 km/h 33.8 km/h 62% 0 mm
06:15 -2.8 °C -9.1 °C 1011.7 hPa WSW 14.5 km/h 27.4 km/h 62% 0 mm
06:20 -2.8 °C -9.1 °C 1011.4 hPa WSW 19.3 km/h 32.2 km/h 62% 0 mm
06:25 -2.7 °C -9 °C 1011.7 hPa WSW 12.9 km/h 32.2 km/h 62% 0 mm
06:30 -2.8 °C -9.1 °C 1012.1 hPa WSW 12.9 km/h 30.6 km/h 62% 0 mm
06:35 -2.8 °C -9.1 °C 1011.7 hPa West 12.9 km/h 30.6 km/h 62% 0 mm
06:40 -2.7 °C -9 °C 1012.1 hPa West 16.1 km/h 24.1 km/h 62% 0 mm
06:45 -2.7 °C -9 °C 1012.1 hPa WSW 9.7 km/h 24.1 km/h 62% 0 mm
06:50 -2.8 °C -9.1 °C 1012.1 hPa WSW 14.5 km/h 25.7 km/h 62% 0 mm
06:55 -2.8 °C -9.1 °C 1012.1 hPa WSW 9.7 km/h 25.7 km/h 62% 0 mm
07:00 -2.8 °C -9.1 °C 1012.1 hPa WSW 11.3 km/h 22.5 km/h 62% 0 mm
07:05 -2.8 °C -9.1 °C 1012.1 hPa WSW 14.5 km/h 32.2 km/h 62% 0 mm
07:10 -2.7 °C -9.2 °C 1012.1 hPa WSW 9.7 km/h 32.2 km/h 61% 0 mm
07:14 -2.8 °C -9.3 °C 1012.1 hPa WSW 14.5 km/h 25.7 km/h 61% 0 mm
07:20 -2.8 °C -9.3 °C 1012.4 hPa SW 9.7 km/h 22.5 km/h 61% 0 mm
07:25 -2.7 °C -9.2 °C 1012.4 hPa WSW 9.7 km/h 22.5 km/h 61% 0 mm
07:30 -2.7 °C -9.2 °C 1012.4 hPa WSW 14.5 km/h 30.6 km/h 61% 0 mm
07:34 -2.7 °C -9.2 °C 1012.4 hPa WSW 9.7 km/h 32.2 km/h 61% 0 mm
07:40 -2.7 °C -9.4 °C 1012.8 hPa WSW 11.3 km/h 32.2 km/h 60% 0 mm
07:45 -2.7 °C -9.4 °C 1012.4 hPa SW 8 km/h 20.9 km/h 60% 0 mm
07:50 -2.8 °C -9.3 °C 1012.8 hPa WSW 11.3 km/h 20.9 km/h 61% 0 mm
08:00 -2.7 °C -9.2 °C 1012.8 hPa WSW 11.3 km/h 20.9 km/h 61% 0 mm
08:05 -2.8 °C -9.3 °C 1012.8 hPa West 9.7 km/h 20.9 km/h 61% 0 mm
08:10 -2.8 °C -9.3 °C 1013.1 hPa WSW 9.7 km/h 20.9 km/h 61% 0 mm
08:14 -2.7 °C -9.2 °C 1013.1 hPa WSW 8 km/h 22.5 km/h 61% 0 mm
08:20 -2.6 °C -9.1 °C 1013.1 hPa WSW 9.7 km/h 30.6 km/h 61% 0 mm
08:25 -2.6 °C -9.1 °C 1013.1 hPa WSW 11.3 km/h 30.6 km/h 61% 0 mm
08:30 -2.6 °C -8.8 °C 1013.1 hPa WSW 9.7 km/h 27.4 km/h 62% 0 mm
08:35 -2.4 °C -8.7 °C 1013.1 hPa WSW 12.9 km/h 24.1 km/h 62% 0 mm
08:40 -2.3 °C -8.8 °C 1013.1 hPa WSW 11.3 km/h 24.1 km/h 61% 0 mm
08:45 -2.1 °C -8.6 °C 1013.4 hPa WSW 16.1 km/h 32.2 km/h 61% 0 mm
08:50 -2.1 °C -8.8 °C 1013.1 hPa WSW 12.9 km/h 32.2 km/h 60% 0 mm
08:55 -2 °C -8.7 °C 1013.1 hPa West 16.1 km/h 25.7 km/h 60% 0 mm
09:00 -1.8 °C -8.8 °C 1013.1 hPa WSW 14.5 km/h 25.7 km/h 59% 0 mm
09:05 -1.8 °C -8.7 °C 1013.1 hPa West 11.3 km/h 25.7 km/h 59% 0 mm
09:09 -1.8 °C -8.7 °C 1013.1 hPa West 9.7 km/h 25.7 km/h 59% 0 mm
09:15 -1.7 °C -8.6 °C 1013.1 hPa SW 8 km/h 19.3 km/h 59% 0 mm
09:20 -1.3 °C -8.6 °C 1013.1 hPa West 6.4 km/h 20.9 km/h 58% 0 mm
09:25 -1.2 °C -8.4 °C 1013.1 hPa West 4.8 km/h 20.9 km/h 58% 0 mm
09:30 -0.9 °C -7.5 °C 1013.1 hPa WSW 1.6 km/h 16.1 km/h 61% 0 mm
09:35 -1.1 °C -7.4 °C 1013.1 hPa SW 3.2 km/h 12.9 km/h 62% 0 mm
09:40 -1.3 °C -7.4 °C 1013.1 hPa SW 8 km/h 14.5 km/h 63% 0 mm
09:45 -1.6 °C -7.1 °C 1013.1 hPa SW 11.3 km/h 17.7 km/h 66% 0 mm
09:50 -1.8 °C -6.9 °C 1013.1 hPa SW 8 km/h 17.7 km/h 68% 0 mm
09:55 -1.8 °C -6.9 °C 1013.1 hPa SSW 8 km/h 16.1 km/h 68% 0 mm
09:59 -1.8 °C -6.9 °C 1013.1 hPa SW 8 km/h 16.1 km/h 68% 0 mm
10:04 -1.8 °C -6.9 °C 1013.4 hPa WSW 8 km/h 17.7 km/h 68% 0 mm
10:10 -1.8 °C -6.7 °C 1013.1 hPa WSW 8 km/h 17.7 km/h 69% 0 mm
10:15 -1.8 °C -6.7 °C 1013.1 hPa WSW 3.2 km/h 14.5 km/h 69% 0 mm
10:19 -1.7 °C -6.7 °C 1013.1 hPa WSW 9.7 km/h 17.7 km/h 69% 0 mm
10:25 -1.7 °C -6.7 °C 1013.4 hPa SW 6.4 km/h 17.7 km/h 69% 0 mm
10:35 -1.7 °C -6.8 °C 1013.1 hPa WSW 9.7 km/h 32.2 km/h 68% 0 mm
10:45 -1.6 °C -6.9 °C 1013.4 hPa WSW 9.7 km/h 24.1 km/h 67% 0 mm
10:49 -1.7 °C -7.2 °C 1013.4 hPa WSW 12.9 km/h 27.4 km/h 66% 0 mm
10:55 -1.7 °C -7.2 °C 1013.4 hPa West 12.9 km/h 27.4 km/h 66% 0 mm
11:00 -1.8 °C -7.1 °C 1013.4 hPa WSW 11.3 km/h 40.2 km/h 67% 0 mm
11:05 -1.8 °C -6.9 °C 1013.4 hPa West 4.8 km/h 40.2 km/h 68% 0 mm
11:09 -1.8 °C -6.8 °C 1013.4 hPa WSW 11.3 km/h 22.5 km/h 69% 0 mm
11:15 -2.1 °C -6.2 °C 1013.4 hPa WSW 9.7 km/h 22.5 km/h 73% 0 mm
11:20 -2.3 °C -6.2 °C 1013.1 hPa West 9.7 km/h 20.9 km/h 75% 0 mm
11:29 -2.8 °C -5.9 °C 1013.1 hPa West 9.7 km/h 22.5 km/h 79% 0 mm
11:35 -2.9 °C -5.8 °C 1013.1 hPa WNW 9.7 km/h 24.1 km/h 80% 0 mm
11:40 -2.9 °C -5.6 °C 1013.1 hPa West 8 km/h 24.1 km/h 82% 0 mm
11:45 -2.9 °C -5.6 °C 1012.8 hPa West 9.7 km/h 17.7 km/h 82% 0 mm
11:50 -2.9 °C -5.4 °C 1012.8 hPa West 8 km/h 17.7 km/h 83% 0 mm
11:55 -2.8 °C -5.3 °C 1012.8 hPa West 4.8 km/h 14.5 km/h 83% 0 mm
12:00 -2.7 °C -5.2 °C 1012.8 hPa WNW 8 km/h 12.9 km/h 83% 0 mm
12:04 -2.4 °C -4.8 °C 1012.8 hPa West 4.8 km/h 16.1 km/h 84% 0 mm
12:10 -2.1 °C -4.4 °C 1012.8 hPa WNW 4.8 km/h 16.1 km/h 84% 0 mm
12:15 -2 °C -4.7 °C 1012.4 hPa WNW 8 km/h 11.3 km/h 82% 0 mm
12:19 -1.9 °C -4.6 °C 1012.4 hPa West 1.6 km/h 11.3 km/h 82% 0 mm
12:25 -1.8 °C -4.7 °C 1012.4 hPa WNW 6.4 km/h 12.9 km/h 81% 0 mm
12:30 -1.7 °C -4.6 °C 1012.4 hPa WNW 4.8 km/h 12.9 km/h 81% 0 mm
12:35 -1.6 °C -4.6 °C 1012.1 hPa WNW 3.2 km/h 8 km/h 80% 0 mm
12:39 -1.6 °C -4.7 °C 1012.1 hPa WNW 6.4 km/h 11.3 km/h 79% 0 mm
12:45 -1.8 °C -5.1 °C 1012.1 hPa WNW 3.2 km/h 11.3 km/h 78% 0 mm
12:50 -1.8 °C -5.1 °C 1012.1 hPa WNW 1.6 km/h 6.4 km/h 78% 0 mm
12:55 -1.7 °C -5.1 °C 1011.7 hPa WNW 3.2 km/h 4.8 km/h 78% 0 mm
12:59 -1.6 °C -5.1 °C 1011.7 hPa Calm   4.8 km/h 77% 0 mm
13:05 -1.3 °C -4.9 °C 1011.4 hPa Calm   3.2 km/h 76% 0 mm
13:10 -1 °C -5.1 °C 1011.4 hPa Calm     74% 0 mm
13:14 -1 °C -5.6 °C 1011.4 hPa WNW 1.6 km/h 6.4 km/h 71% 0 mm
13:20 -1.1 °C -5.8 °C 1011.4 hPa Calm   6.4 km/h 70% 0 mm
13:25 -1.1 °C -5.8 °C 1011.4 hPa Calm   4.8 km/h 70% 0 mm
13:30 -1.1 °C -5.8 °C 1011.1 hPa Calm   4.8 km/h 70% 0 mm
13:40 -1 °C -5.9 °C 1011.1 hPa Calm   4.8 km/h 69% 0 mm
13:45 -0.9 °C -5.9 °C 1011.1 hPa Calm   6.4 km/h 69% 0 mm
13:50 -0.8 °C -5.8 °C 1011.1 hPa WNW 1.6 km/h 6.4 km/h 69% 0 mm
13:55 -0.8 °C -6.2 °C 1011.1 hPa WNW 3.2 km/h 6.4 km/h 67% 0 mm
14:00 -0.8 °C -6.2 °C 1011.1 hPa WNW 1.6 km/h 6.4 km/h 67% 0 mm
14:05 -0.9 °C -6.2 °C 1011.1 hPa WNW 3.2 km/h 6.4 km/h 67% 0 mm
14:10 -0.9 °C -6.3 °C 1011.1 hPa WNW 1.6 km/h 6.4 km/h 67% 0 mm
14:15 -0.9 °C -6.5 °C 1011.1 hPa WNW 1.6 km/h 8 km/h 66% 0 mm
14:20 -0.8 °C -6.2 °C 1011.1 hPa Calm   8 km/h 67% 0 mm
14:25 -0.7 °C -6.4 °C 1010.7 hPa WNW 1.6 km/h 6.4 km/h 65% 0 mm
14:30 -0.6 °C -6.6 °C 1010.7 hPa Calm   6.4 km/h 64% 0 mm
14:35 -0.5 °C -6.5 °C 1010.7 hPa WNW 3.2 km/h 6.4 km/h 64% 0 mm
14:40 -0.4 °C -6.6 °C 1010.7 hPa Calm   6.4 km/h 63% 0 mm
14:50 -0.3 °C -6.3 °C 1011.1 hPa Calm   4.8 km/h 64% 0 mm
14:55 -0.3 °C -6.5 °C 1011.1 hPa WNW 1.6 km/h 4.8 km/h 63% 0 mm
15:00 -0.3 °C -6.7 °C 1011.1 hPa Calm   4.8 km/h 62% 0 mm
15:04 -0.3 °C -6.7 °C 1011.1 hPa WNW 3.2 km/h 8 km/h 62% 0 mm
15:10 -0.3 °C -6.9 °C 1011.1 hPa WNW 1.6 km/h 8 km/h 61% 0 mm
15:15 -0.3 °C -6.7 °C 1011.1 hPa WNW 1.6 km/h 8 km/h 62% 0 mm
15:20 -0.3 °C -6.7 °C 1011.1 hPa Calm   3.2 km/h 62% 0 mm
15:30 -0.3 °C -6.7 °C 1011.1 hPa Calm   3.2 km/h 62% 0 mm
15:35 -0.3 °C -6.3 °C 1011.1 hPa Calm     64% 0 mm
15:40 -0.3 °C -6.3 °C 1011.1 hPa Calm     64% 0 mm
15:45 -0.3 °C -6.7 °C 1011.1 hPa WNW 4.8 km/h 9.7 km/h 62% 0 mm
15:50 -0.3 °C -6.9 °C 1011.1 hPa WSW 6.4 km/h 12.9 km/h 61% 0 mm
15:55 -0.3 °C -6.7 °C 1011.1 hPa WSW 6.4 km/h 14.5 km/h 62% 0 mm
16:00 -0.2 °C -6.8 °C 1011.1 hPa WSW 6.4 km/h 14.5 km/h 61% 0 mm
16:05 -0.2 °C -6.8 °C 1011.1 hPa West 9.7 km/h 17.7 km/h 61% 0 mm
16:10 -0.1 °C -6.7 °C 1011.1 hPa West 6.4 km/h 20.9 km/h 61% 0 mm
16:15 0 °C -6.8 °C 1011.4 hPa West 11.3 km/h 20.9 km/h 60% 0 mm
16:20 0.1 °C -6.5 °C 1011.1 hPa WSW 6.4 km/h 19.3 km/h 61% 0 mm
16:25 0.3 °C -6.6 °C 1011.1 hPa West 8 km/h 17.7 km/h 60% 0 mm
16:30 0.3 °C -6.5 °C 1011.1 hPa West 6.4 km/h 16.1 km/h 60% 0 mm
16:35 0.3 °C -6.3 °C 1011.1 hPa WSW 6.4 km/h 16.1 km/h 61% 0 mm
16:40 0.3 °C -6.5 °C 1011.1 hPa SW 6.4 km/h 14.5 km/h 60% 0 mm
16:45 0.3 °C -6.6 °C 1011.4 hPa SW 6.4 km/h 14.5 km/h 60% 0 mm
16:50 0.2 °C -6.3 °C 1011.4 hPa Calm   14.5 km/h 62% 0 mm
16:55 0.1 °C -6.6 °C 1011.4 hPa WSW 6.4 km/h 9.7 km/h 61% 0 mm
17:00 0.1 °C -6.6 °C 1011.4 hPa SW 3.2 km/h 9.7 km/h 61% 0 mm
17:05 0.1 °C -6.4 °C 1011.4 hPa WSW 4.8 km/h 9.7 km/h 62% 0 mm
17:10 0.1 °C -6.5 °C 1011.4 hPa SW 8 km/h 17.7 km/h 61% 0 mm
17:15 0.1 °C -6.5 °C 1011.7 hPa WSW 8 km/h 17.7 km/h 61% 0 mm
17:20 0.1 °C -6.5 °C 1011.7 hPa WSW 6.4 km/h 12.9 km/h 61% 0 mm
17:25 0.1 °C -6.6 °C 1011.4 hPa WSW 6.4 km/h 12.9 km/h 61% 0 mm
17:30 0.1 °C -6.6 °C 1011.7 hPa WSW 6.4 km/h 11.3 km/h 61% 0 mm
17:35 0.1 °C -6.6 °C 1011.7 hPa SW 4.8 km/h 14.5 km/h 61% 0 mm
17:40 0.1 °C -6.4 °C 1011.7 hPa WSW 4.8 km/h 20.9 km/h 62% 0 mm
17:45 -0.1 °C -6.7 °C 1011.7 hPa WSW 6.4 km/h 20.9 km/h 61% 0 mm
17:50 -0.1 °C -6.4 °C 1011.7 hPa SW 6.4 km/h 16.1 km/h 62% 0 mm
17:55 0 °C -6.6 °C 1011.7 hPa SW 8 km/h 16.1 km/h 61% 0 mm
18:00 0 °C -6.4 °C 1011.7 hPa SSW 6.4 km/h 14.5 km/h 62% 0 mm
18:05 -0.1 °C -6.4 °C 1011.7 hPa SW 6.4 km/h 14.5 km/h 62% 0 mm
18:10 -0.1 °C -6.4 °C 1011.7 hPa SW 8 km/h 14.5 km/h 62% 0 mm
18:15 -0.1 °C -6.4 °C 1011.7 hPa SW 9.7 km/h 16.1 km/h 62% 0 mm
18:20 -0.1 °C -6.4 °C 1011.7 hPa SSW 8 km/h 16.1 km/h 62% 0 mm
18:25 -0.1 °C -6.3 °C 1012.1 hPa WSW 6.4 km/h 16.1 km/h 63% 0 mm
18:30 -0.1 °C -6.5 °C 1012.1 hPa SW 11.3 km/h 20.9 km/h 62% 0 mm
18:35 -0.2 °C -6.4 °C 1012.1 hPa SW 11.3 km/h 20.9 km/h 63% 0 mm
18:40 -0.2 °C -6.4 °C 1012.1 hPa SW 9.7 km/h 20.9 km/h 63% 0 mm
18:45 -0.2 °C -6.4 °C 1012.1 hPa SW 9.7 km/h 20.9 km/h 63% 0 mm
18:50 -0.3 °C -6.3 °C 1012.1 hPa SW 8 km/h 17.7 km/h 64% 0 mm
18:55 -0.3 °C -6.3 °C 1012.1 hPa SW 6.4 km/h 17.7 km/h 64% 0 mm
19:00 -0.3 °C -6.3 °C 1012.4 hPa WSW 8 km/h 17.7 km/h 64% 0 mm
19:05 -0.3 °C -6.1 °C 1012.4 hPa WSW 6.4 km/h 17.7 km/h 65% 0 mm
19:10 -0.4 °C -6.2 °C 1012.4 hPa WNW 8 km/h 12.9 km/h 65% 0 mm
19:15 -0.4 °C -5.9 °C 1012.4 hPa WNW 4.8 km/h 12.9 km/h 66% 0 mm
19:20 -0.5 °C -5.9 °C 1012.4 hPa West 6.4 km/h 12.9 km/h 67% 0 mm
19:25 -0.6 °C -5.6 °C 1012.4 hPa WNW 4.8 km/h 11.3 km/h 69% 0 mm
19:30 -0.7 °C -5.3 °C 1012.4 hPa WNW 4.8 km/h 11.3 km/h 71% 0 mm
19:40 -1.1 °C -5.3 °C 1012.8 hPa Calm   8 km/h 73% 0 mm
19:50 -1.3 °C -5.1 °C 1012.8 hPa WNW 4.8 km/h 8 km/h 75% 0 mm
19:55 -1.3 °C -5 °C 1012.8 hPa WNW 3.2 km/h 9.7 km/h 76% 0 mm
20:00 -1.3 °C -4.8 °C 1012.8 hPa Calm   9.7 km/h 77% 0 mm
20:05 -1.4 °C -4.9 °C 1012.8 hPa WNW 1.6 km/h 4.8 km/h 77% 0 mm
20:10 -1.4 °C -4.9 °C 1012.8 hPa WNW 1.6 km/h 6.4 km/h 77% 0 mm
20:15 -1.4 °C -4.9 °C 1012.8 hPa WNW 1.6 km/h 6.4 km/h 77% 0 mm
20:20 -1.6 °C -4.9 °C 1012.8 hPa Calm   4.8 km/h 78% 0 mm
20:25 -1.6 °C -4.9 °C 1012.8 hPa WNW 1.6 km/h 4.8 km/h 78% 0 mm
20:30 -1.6 °C -4.9 °C 1012.8 hPa Calm   4.8 km/h 78% 0 mm
20:35 -1.6 °C -4.9 °C 1012.8 hPa WNW 1.6 km/h 4.8 km/h 78% 0 mm
20:40 -1.6 °C -4.9 °C 1012.8 hPa WNW 1.6 km/h 6.4 km/h 78% 0 mm
20:45 -1.6 °C -4.9 °C 1012.8 hPa WNW 3.2 km/h 8 km/h 78% 0 mm
20:50 -1.6 °C -4.9 °C 1012.4 hPa WNW 1.6 km/h 8 km/h 78% 0 mm
20:55 -1.6 °C -4.9 °C 1012.4 hPa Calm   4.8 km/h 78% 0 mm
21:00 -1.7 °C -5 °C 1012.4 hPa WNW 3.2 km/h 6.4 km/h 78% 0 mm
21:05 -1.8 °C -5.1 °C 1012.4 hPa WNW 1.6 km/h 6.4 km/h 78% 0 mm
21:10 -1.8 °C -5.2 °C 1012.4 hPa WNW 1.6 km/h 6.4 km/h 78% 0 mm
21:15 -1.8 °C -5 °C 1012.4 hPa WNW 3.2 km/h 6.4 km/h 79% 0 mm
21:19 -1.8 °C -4.9 °C 1012.4 hPa WNW 3.2 km/h 6.4 km/h 79% 0 mm
21:25 -1.7 °C -4.9 °C 1012.4 hPa WNW 4.8 km/h 9.7 km/h 79% 0 mm
21:30 -1.6 °C -4.9 °C 1012.4 hPa WNW 4.8 km/h 9.7 km/h 78% 0 mm
21:40 -1.6 °C -4.7 °C 1012.4 hPa WNW 6.4 km/h 12.9 km/h 79% 0 mm
21:45 -1.6 °C -4.6 °C 1012.4 hPa West 4.8 km/h 12.9 km/h 80% 0 mm
21:50 -1.7 °C -4.7 °C 1012.4 hPa WNW 3.2 km/h 12.9 km/h 80% 0 mm
21:55 -1.8 °C -4.6 °C 1012.4 hPa WNW 3.2 km/h 9.7 km/h 81% 0 mm
22:00 -1.8 °C -4.7 °C 1012.4 hPa West 4.8 km/h 8 km/h 81% 0 mm
22:05 -1.9 °C -4.6 °C 1012.4 hPa Calm   8 km/h 82% 0 mm
22:10 -1.9 °C -4.6 °C 1012.4 hPa WSW 4.8 km/h 8 km/h 82% 0 mm
22:15 -2 °C -4.5 °C 1012.4 hPa WSW 1.6 km/h 8 km/h 83% 0 mm
22:20 -2.1 °C -4.6 °C 1012.4 hPa WSW 1.6 km/h 6.4 km/h 83% 0 mm
22:30 -2.1 °C -4.4 °C 1012.4 hPa WSW 1.6 km/h 4.8 km/h 84% 0 mm
22:35 -2.1 °C -4.4 °C 1012.4 hPa Calm   4.8 km/h 84% 0 mm
22:40 -2.2 °C -4.5 °C 1012.4 hPa Calm   3.2 km/h 84% 0 mm
22:45 -2.1 °C -4.3 °C 1012.4 hPa Calm   4.8 km/h 85% 0 mm
22:50 -2.1 °C -4.3 °C 1012.4 hPa WSW 3.2 km/h 4.8 km/h 85% 0 mm
22:54 -2.1 °C -4.3 °C 1012.4 hPa WSW 3.2 km/h 8 km/h 85% 0 mm
23:00 -2.1 °C -4.3 °C 1012.4 hPa WSW 1.6 km/h 8 km/h 85% 0 mm
23:05 -2.1 °C -4.3 °C 1012.4 hPa WSW 3.2 km/h 6.4 km/h 85% 0 mm
23:10 -2.1 °C -4.3 °C 1012.4 hPa WSW 1.6 km/h 8 km/h 85% 0 mm
23:15 -2.1 °C -4.3 °C 1012.4 hPa Calm   8 km/h 85% 0 mm
23:20 -2.1 °C -4.4 °C 1012.4 hPa WSW 1.6 km/h 6.4 km/h 84% 0 mm
23:30 -2.1 °C -4.4 °C 1012.4 hPa WSW 1.6 km/h 4.8 km/h 84% 0 mm
23:35 -2.1 °C -4.4 °C 1012.4 hPa WSW 1.6 km/h 9.7 km/h 84% 0 mm
23:40 -2.1 °C -4.4 °C 1012.4 hPa WSW 1.6 km/h 9.7 km/h 84% 0 mm
23:44 -2 °C -4.2 °C 1012.4 hPa Calm   8 km/h 85% 0 mm
23:50 -2.1 °C -4.2 °C 1012.4 hPa WSW 1.6 km/h 6.4 km/h 85% 0 mm
23:54 -2.1 °C -4.2 °C 1012.4 hPa Calm   6.4 km/h 85% 0 mm
Westford Weather
Compliments of Weather Underground

 
 
Current Radar Loop:

Copyright © WestfordWeather.net 2007-2014. All rights reserved.